sensor_id;sensor_type;location;lat;lon;timestamp;pressure;altitude;pressure_sealevel;temperature;humidity
12636;BME280;6383;50.830;7.210;2023-03-14T00:01:11;98503.63;;;13.08;68.32
12636;BME280;6383;50.830;7.210;2023-03-14T00:03:40;98511.03;;;13.07;67.75
12636;BME280;6383;50.830;7.210;2023-03-14T00:06:09;98504.41;;;13.08;68.25
12636;BME280;6383;50.830;7.210;2023-03-14T00:08:39;98496.22;;;13.08;67.87
12636;BME280;6383;50.830;7.210;2023-03-14T00:11:10;98506.34;;;13.08;67.52
12636;BME280;6383;50.830;7.210;2023-03-14T00:13:40;98522.38;;;13.10;67.85
12636;BME280;6383;50.830;7.210;2023-03-14T00:16:10;98526.25;;;13.08;67.79
12636;BME280;6383;50.830;7.210;2023-03-14T00:18:40;98541.06;;;13.07;67.97
12636;BME280;6383;50.830;7.210;2023-03-14T00:21:10;98533.25;;;13.06;68.48
12636;BME280;6383;50.830;7.210;2023-03-14T00:23:41;98531.28;;;13.06;67.77
12636;BME280;6383;50.830;7.210;2023-03-14T00:26:12;98537.94;;;13.05;67.59
12636;BME280;6383;50.830;7.210;2023-03-14T00:28:41;98544.16;;;13.06;67.53
12636;BME280;6383;50.830;7.210;2023-03-14T00:31:13;98545.75;;;13.07;67.58
12636;BME280;6383;50.830;7.210;2023-03-14T00:33:42;98536.41;;;13.08;67.90
12636;BME280;6383;50.830;7.210;2023-03-14T00:36:14;98528.19;;;13.08;67.92
12636;BME280;6383;50.830;7.210;2023-03-14T00:38:45;98529.00;;;13.08;67.84
12636;BME280;6383;50.830;7.210;2023-03-14T00:41:20;98529.78;;;13.09;67.49
12636;BME280;6383;50.830;7.210;2023-03-14T00:43:49;98529.78;;;13.09;67.48
12636;BME280;6383;50.830;7.210;2023-03-14T00:46:18;98532.94;;;13.11;67.79
12636;BME280;6383;50.830;7.210;2023-03-14T00:48:47;98520.88;;;13.12;67.84
12636;BME280;6383;50.830;7.210;2023-03-14T00:51:18;98516.19;;;13.13;67.79
12636;BME280;6383;50.830;7.210;2023-03-14T00:53:45;98510.38;;;13.14;67.54
12636;BME280;6383;50.830;7.210;2023-03-14T00:56:13;98524.03;;;13.14;67.51
12636;BME280;6383;50.830;7.210;2023-03-14T00:58:42;98517.44;;;13.15;67.46
12636;BME280;6383;50.830;7.210;2023-03-14T01:01:14;98518.22;;;13.16;67.51
12636;BME280;6383;50.830;7.210;2023-03-14T01:03:42;98528.78;;;13.17;67.60
12636;BME280;6383;50.830;7.210;2023-03-14T01:06:11;98529.56;;;13.18;68.19
12636;BME280;6383;50.830;7.210;2023-03-14T01:08:43;98526.47;;;13.19;67.71
12636;BME280;6383;50.830;7.210;2023-03-14T01:11:14;98519.88;;;13.20;67.57
12636;BME280;6383;50.830;7.210;2023-03-14T01:13:44;98530.78;;;13.20;67.56
12636;BME280;6383;50.830;7.210;2023-03-14T01:16:13;98525.31;;;13.20;67.17
12636;BME280;6383;50.830;7.210;2023-03-14T01:18:42;98532.34;;;13.21;67.38
12636;BME280;6383;50.830;7.210;2023-03-14T01:21:14;98528.06;;;13.20;67.37
12636;BME280;6383;50.830;7.210;2023-03-14T01:23:46;98515.94;;;13.21;67.38
12636;BME280;6383;50.830;7.210;2023-03-14T01:26:16;98515.16;;;13.21;67.45
12636;BME280;6383;50.830;7.210;2023-03-14T01:28:47;98511.66;;;13.20;67.64
12636;BME280;6383;50.830;7.210;2023-03-14T01:31:16;98500.75;;;13.20;67.67
12636;BME280;6383;50.830;7.210;2023-03-14T01:33:45;98506.97;;;13.21;67.48
12636;BME280;6383;50.830;7.210;2023-03-14T01:36:15;98503.47;;;13.20;67.51
12636;BME280;6383;50.830;7.210;2023-03-14T01:38:45;98499.94;;;13.20;67.66
12636;BME280;6383;50.830;7.210;2023-03-14T01:41:16;98508.94;;;13.20;67.72
12636;BME280;6383;50.830;7.210;2023-03-14T01:43:46;98510.88;;;13.20;68.94
12636;BME280;6383;50.830;7.210;2023-03-14T01:46:21;98510.09;;;13.19;69.61
12636;BME280;6383;50.830;7.210;2023-03-14T01:48:55;98509.25;;;13.15;69.77
12636;BME280;6383;50.830;7.210;2023-03-14T01:51:30;98506.41;;;13.12;70.01
12636;BME280;6383;50.830;7.210;2023-03-14T01:54:06;98497.38;;;13.07;70.15
12636;BME280;6383;50.830;7.210;2023-03-14T01:56:36;98492.66;;;13.04;70.54
12636;BME280;6383;50.830;7.210;2023-03-14T01:59:06;98489.50;;;13.02;70.48
12636;BME280;6383;50.830;7.210;2023-03-14T02:01:36;98491.03;;;13.00;70.86
12636;BME280;6383;50.830;7.210;2023-03-14T02:04:07;98489.09;;;13.00;70.87
12636;BME280;6383;50.830;7.210;2023-03-14T02:06:48;98496.84;;;12.98;71.16
12636;BME280;6383;50.830;7.210;2023-03-14T02:09:19;98496.06;;;12.98;71.49
12636;BME280;6383;50.830;7.210;2023-03-14T02:11:49;98521.00;;;12.96;72.03
12636;BME280;6383;50.830;7.210;2023-03-14T02:14:27;98534.00;;;12.80;73.61
12636;BME280;6383;50.830;7.210;2023-03-14T02:16:58;98513.94;;;12.46;75.34
12636;BME280;6383;50.830;7.210;2023-03-14T02:19:47;98526.19;;;12.14;77.06
12636;BME280;6383;50.830;7.210;2023-03-14T02:22:18;98515.50;;;11.86;78.84
12636;BME280;6383;50.830;7.210;2023-03-14T02:24:56;98521.78;;;11.71;79.81
12636;BME280;6383;50.830;7.210;2023-03-14T02:27:31;98517.16;;;11.55;81.95
12636;BME280;6383;50.830;7.210;2023-03-14T02:30:02;98511.91;;;11.47;84.59
12636;BME280;6383;50.830;7.210;2023-03-14T02:32:33;98513.25;;;11.37;85.58
12636;BME280;6383;50.830;7.210;2023-03-14T02:35:05;98505.72;;;11.30;88.43
12636;BME280;6383;50.830;7.210;2023-03-14T02:37:39;98490.81;;;11.24;90.99
12636;BME280;6383;50.830;7.210;2023-03-14T02:40:09;98489.56;;;11.22;93.26
12636;BME280;6383;50.830;7.210;2023-03-14T02:42:39;98492.66;;;11.20;95.24
12636;BME280;6383;50.830;7.210;2023-03-14T02:48:19;98480.09;;;11.16;99.20
12636;BME280;6383;50.830;7.210;2023-03-14T02:50:52;98467.63;;;11.15;100.00
12636;BME280;6383;50.830;7.210;2023-03-14T02:53:25;98460.53;;;11.10;100.00
12636;BME280;6383;50.830;7.210;2023-03-14T02:55:53;98455.44;;;11.09;100.00
12636;BME280;6383;50.830;7.210;2023-03-14T02:58:23;98455.00;;;11.07;100.00
12636;BME280;6383;50.830;7.210;2023-03-14T03:00:50;98451.06;;;11.04;100.00
12636;BME280;6383;50.830;7.210;2023-03-14T03:03:20;98452.56;;;11.02;100.00
12636;BME280;6383;50.830;7.210;2023-03-14T03:05:49;98443.94;;;11.00;100.00
12636;BME280;6383;50.830;7.210;2023-03-14T03:08:20;98457.16;;;10.98;100.00
12636;BME280;6383;50.830;7.210;2023-03-14T03:10:50;98448.09;;;10.93;100.00
12636;BME280;6383;50.830;7.210;2023-03-14T03:13:19;98445.72;;;10.92;100.00
12636;BME280;6383;50.830;7.210;2023-03-14T03:15:49;98453.91;;;10.92;100.00
12636;BME280;6383;50.830;7.210;2023-03-14T03:18:19;98448.00;;;10.90;100.00
12636;BME280;6383;50.830;7.210;2023-03-14T03:20:47;98444.50;;;10.89;100.00
12636;BME280;6383;50.830;7.210;2023-03-14T03:23:16;98451.53;;;10.90;100.00
12636;BME280;6383;50.830;7.210;2023-03-14T03:25:48;98443.38;;;10.90;100.00
12636;BME280;6383;50.830;7.210;2023-03-14T03:28:15;98442.56;;;10.90;100.00
12636;BME280;6383;50.830;7.210;2023-03-14T03:30:44;98455.38;;;10.89;100.00
12636;BME280;6383;50.830;7.210;2023-03-14T03:33:14;98446.78;;;10.87;100.00
12636;BME280;6383;50.830;7.210;2023-03-14T03:35:44;98450.59;;;10.83;100.00
12636;BME280;6383;50.830;7.210;2023-03-14T03:38:12;98453.66;;;10.81;100.00
12636;BME280;6383;50.830;7.210;2023-03-14T03:40:42;98447.00;;;10.79;100.00
12636;BME280;6383;50.830;7.210;2023-03-14T03:43:10;98439.88;;;10.74;100.00
12636;BME280;6383;50.830;7.210;2023-03-14T03:45:38;98437.16;;;10.74;100.00
12636;BME280;6383;50.830;7.210;2023-03-14T03:48:07;98428.19;;;10.74;100.00
12636;BME280;6383;50.830;7.210;2023-03-14T03:50:43;98438.72;;;10.75;100.00
12636;BME280;6383;50.830;7.210;2023-03-14T03:53:11;98432.94;;;10.77;100.00
12636;BME280;6383;50.830;7.210;2023-03-14T03:55:40;98428.72;;;10.79;100.00
12636;BME280;6383;50.830;7.210;2023-03-14T03:58:08;98426.44;;;10.81;100.00
12636;BME280;6383;50.830;7.210;2023-03-14T04:00:37;98428.03;;;10.82;100.00
12636;BME280;6383;50.830;7.210;2023-03-14T04:03:05;98425.22;;;10.79;100.00
12636;BME280;6383;50.830;7.210;2023-03-14T04:05:33;98426.09;;;10.83;100.00
12636;BME280;6383;50.830;7.210;2023-03-14T04:08:04;98424.56;;;10.85;100.00
12636;BME280;6383;50.830;7.210;2023-03-14T04:10:34;98418.78;;;10.87;100.00
12636;BME280;6383;50.830;7.210;2023-03-14T04:13:02;98425.00;;;10.87;100.00
12636;BME280;6383;50.830;7.210;2023-03-14T04:15:30;98421.16;;;10.88;100.00
12636;BME280;6383;50.830;7.210;2023-03-14T04:17:59;98420.00;;;10.89;100.00
12636;BME280;6383;50.830;7.210;2023-03-14T04:20:27;98411.50;;;10.91;100.00
12636;BME280;6383;50.830;7.210;2023-03-14T04:22:56;98408.41;;;10.92;100.00
12636;BME280;6383;50.830;7.210;2023-03-14T04:25:25;98405.69;;;10.92;100.00
12636;BME280;6383;50.830;7.210;2023-03-14T04:27:53;98401.84;;;10.93;100.00
12636;BME280;6383;50.830;7.210;2023-03-14T04:30:22;98403.78;;;10.93;100.00
12636;BME280;6383;50.830;7.210;2023-03-14T04:32:50;98408.41;;;10.92;100.00
12636;BME280;6383;50.830;7.210;2023-03-14T04:35:19;98403.41;;;10.94;100.00
12636;BME280;6383;50.830;7.210;2023-03-14T04:37:48;98409.31;;;10.97;100.00
12636;BME280;6383;50.830;7.210;2023-03-14T04:40:19;98398.41;;;10.97;100.00
12636;BME280;6383;50.830;7.210;2023-03-14T04:42:48;98398.41;;;10.97;100.00
12636;BME280;6383;50.830;7.210;2023-03-14T04:45:17;98397.69;;;11.00;100.00
12636;BME280;6383;50.830;7.210;2023-03-14T04:47:46;98394.25;;;11.03;100.00
12636;BME280;6383;50.830;7.210;2023-03-14T04:50:15;98385.38;;;11.06;100.00
12636;BME280;6383;50.830;7.210;2023-03-14T04:52:44;98384.22;;;11.07;100.00
12636;BME280;6383;50.830;7.210;2023-03-14T04:55:13;98384.31;;;11.10;100.00
12636;BME280;6383;50.830;7.210;2023-03-14T04:57:43;98383.88;;;11.08;100.00
12636;BME280;6383;50.830;7.210;2023-03-14T05:00:13;98381.16;;;11.08;100.00
12636;BME280;6383;50.830;7.210;2023-03-14T05:02:41;98381.94;;;11.09;100.00
12636;BME280;6383;50.830;7.210;2023-03-14T05:05:09;98373.00;;;11.08;100.00
12636;BME280;6383;50.830;7.210;2023-03-14T05:07:37;98364.38;;;11.06;100.00
12636;BME280;6383;50.830;7.210;2023-03-14T05:10:06;98359.72;;;11.07;100.00
12636;BME280;6383;50.830;7.210;2023-03-14T05:12:34;98355.53;;;11.09;100.00
12636;BME280;6383;50.830;7.210;2023-03-14T05:15:05;98344.63;;;11.09;100.00
12636;BME280;6383;50.830;7.210;2023-03-14T05:17:33;98341.91;;;11.09;100.00
12636;BME280;6383;50.830;7.210;2023-03-14T05:20:03;98347.28;;;11.06;100.00
12636;BME280;6383;50.830;7.210;2023-03-14T05:22:34;98346.47;;;11.05;100.00
12636;BME280;6383;50.830;7.210;2023-03-14T05:25:04;98332.44;;;11.03;100.00
12636;BME280;6383;50.830;7.210;2023-03-14T05:27:33;98340.16;;;11.01;100.00
12636;BME280;6383;50.830;7.210;2023-03-14T05:30:02;98340.97;;;11.02;100.00
12636;BME280;6383;50.830;7.210;2023-03-14T05:32:32;98332.44;;;11.03;100.00
12636;BME280;6383;50.830;7.210;2023-03-14T05:35:00;98329.72;;;11.03;100.00
12636;BME280;6383;50.830;7.210;2023-03-14T05:37:29;98330.50;;;11.04;100.00
12636;BME280;6383;50.830;7.210;2023-03-14T05:39:58;98330.16;;;11.05;100.00
12636;BME280;6383;50.830;7.210;2023-03-14T05:42:25;98328.22;;;11.06;100.00
12636;BME280;6383;50.830;7.210;2023-03-14T05:44:53;98327.44;;;11.05;100.00
12636;BME280;6383;50.830;7.210;2023-03-14T05:47:22;98330.94;;;11.06;100.00
12636;BME280;6383;50.830;7.210;2023-03-14T05:49:53;98335.25;;;11.07;100.00
12636;BME280;6383;50.830;7.210;2023-03-14T05:52:22;98327.88;;;11.07;100.00
12636;BME280;6383;50.830;7.210;2023-03-14T05:54:51;98334.44;;;11.06;100.00
12636;BME280;6383;50.830;7.210;2023-03-14T05:57:18;98339.88;;;11.06;100.00
12636;BME280;6383;50.830;7.210;2023-03-14T05:59:46;98346.47;;;11.05;100.00
12636;BME280;6383;50.830;7.210;2023-03-14T06:02:15;98340.25;;;11.05;100.00
12636;BME280;6383;50.830;7.210;2023-03-14T06:04:43;98334.44;;;11.06;100.00
12636;BME280;6383;50.830;7.210;2023-03-14T06:07:13;98326.72;;;11.08;100.00
12636;BME280;6383;50.830;7.210;2023-03-14T06:09:40;98336.03;;;11.07;100.00
12636;BME280;6383;50.830;7.210;2023-03-14T06:12:09;98327.06;;;11.07;100.00
12636;BME280;6383;50.830;7.210;2023-03-14T06:14:36;98334.81;;;11.05;100.00
12636;BME280;6383;50.830;7.210;2023-03-14T06:17:05;98334.44;;;11.06;100.00
12636;BME280;6383;50.830;7.210;2023-03-14T06:19:34;98330.22;;;11.09;100.00
12636;BME280;6383;50.830;7.210;2023-03-14T06:22:03;98321.72;;;11.10;100.00
12636;BME280;6383;50.830;7.210;2023-03-14T06:24:33;98321.72;;;11.10;100.00
12636;BME280;6383;50.830;7.210;2023-03-14T06:27:03;98326.38;;;11.10;100.00
12636;BME280;6383;50.830;7.210;2023-03-14T06:29:31;98318.56;;;11.08;100.00
12636;BME280;6383;50.830;7.210;2023-03-14T06:31:59;98311.88;;;11.06;100.00
12636;BME280;6383;50.830;7.210;2023-03-14T06:34:27;98314.97;;;11.04;100.00
12636;BME280;6383;50.830;7.210;2023-03-14T06:36:56;98314.16;;;11.04;100.00
12636;BME280;6383;50.830;7.210;2023-03-14T06:39:25;98315.41;;;11.06;100.00
12636;BME280;6383;50.830;7.210;2023-03-14T06:41:54;98311.19;;;11.09;100.00
12636;BME280;6383;50.830;7.210;2023-03-14T06:44:21;98313.09;;;11.08;100.00
12636;BME280;6383;50.830;7.210;2023-03-14T06:46:49;98315.91;;;11.12;100.00
12636;BME280;6383;50.830;7.210;2023-03-14T06:49:18;98316.31;;;11.14;100.00
12636;BME280;6383;50.830;7.210;2023-03-14T06:51:46;98318.31;;;11.17;100.00
12636;BME280;6383;50.830;7.210;2023-03-14T06:54:15;98316.38;;;11.17;100.00
12636;BME280;6383;50.830;7.210;2023-03-14T06:56:44;98316.38;;;11.17;100.00
12636;BME280;6383;50.830;7.210;2023-03-14T06:59:14;98314.75;;;11.13;100.00
12636;BME280;6383;50.830;7.210;2023-03-14T07:01:43;98324.91;;;11.16;100.00
12636;BME280;6383;50.830;7.210;2023-03-14T07:04:12;98328.06;;;11.18;100.00
12636;BME280;6383;50.830;7.210;2023-03-14T07:06:40;98320.75;;;11.22;100.00
12636;BME280;6383;50.830;7.210;2023-03-14T07:09:12;98329.38;;;11.24;100.00
12636;BME280;6383;50.830;7.210;2023-03-14T07:11:41;98336.81;;;11.27;100.00
12636;BME280;6383;50.830;7.210;2023-03-14T07:14:10;98331.38;;;11.27;100.00
12636;BME280;6383;50.830;7.210;2023-03-14T07:16:39;98337.22;;;11.29;100.00
12636;BME280;6383;50.830;7.210;2023-03-14T07:19:08;98336.50;;;11.32;100.00
12636;BME280;6383;50.830;7.210;2023-03-14T07:21:37;98343.53;;;11.33;100.00
12636;BME280;6383;50.830;7.210;2023-03-14T07:24:06;98343.97;;;11.35;100.00
12636;BME280;6383;50.830;7.210;2023-03-14T07:26:35;98342.41;;;11.34;100.00
12636;BME280;6383;50.830;7.210;2023-03-14T07:29:04;98345.13;;;11.34;100.00
12636;BME280;6383;50.830;7.210;2023-03-14T07:31:32;98340.09;;;11.36;100.00
12636;BME280;6383;50.830;7.210;2023-03-14T07:34:03;98342.13;;;11.39;100.00
12636;BME280;6383;50.830;7.210;2023-03-14T07:36:32;98351.13;;;11.43;100.00
12636;BME280;6383;50.830;7.210;2023-03-14T07:39:01;98350.75;;;11.45;100.00
12636;BME280;6383;50.830;7.210;2023-03-14T07:41:32;98352.78;;;11.48;100.00
12636;BME280;6383;50.830;7.210;2023-03-14T07:43:59;98338.94;;;11.56;100.00
12636;BME280;6383;50.830;7.210;2023-03-14T07:46:27;98351.09;;;11.62;100.00
12636;BME280;6383;50.830;7.210;2023-03-14T07:48:56;98357.84;;;11.69;100.00
12636;BME280;6383;50.830;7.210;2023-03-14T07:51:26;98358.69;;;11.73;100.00
12636;BME280;6383;50.830;7.210;2023-03-14T07:53:55;98353.75;;;11.78;100.00
12636;BME280;6383;50.830;7.210;2023-03-14T07:56:24;98361.22;;;11.81;100.00
12636;BME280;6383;50.830;7.210;2023-03-14T07:58:53;98370.19;;;11.82;100.00
12636;BME280;6383;50.830;7.210;2023-03-14T08:01:22;98368.59;;;11.81;100.00
12636;BME280;6383;50.830;7.210;2023-03-14T08:03:50;98365.72;;;11.93;100.00
12636;BME280;6383;50.830;7.210;2023-03-14T08:06:18;98370.16;;;12.01;100.00
12636;BME280;6383;50.830;7.210;2023-03-14T08:08:47;98356.97;;;12.07;100.00
12636;BME280;6383;50.830;7.210;2023-03-14T08:11:16;98363.72;;;12.13;100.00
12636;BME280;6383;50.830;7.210;2023-03-14T08:13:46;98357.53;;;12.16;100.00
12636;BME280;6383;50.830;7.210;2023-03-14T08:16:17;98353.69;;;12.20;100.00
12636;BME280;6383;50.830;7.210;2023-03-14T08:18:46;98359.22;;;12.24;100.00
12636;BME280;6383;50.830;7.210;2023-03-14T08:21:16;98363.59;;;12.28;100.00
12636;BME280;6383;50.830;7.210;2023-03-14T08:23:44;98369.88;;;12.32;100.00
12636;BME280;6383;50.830;7.210;2023-03-14T08:26:14;98362.53;;;12.36;100.00
12636;BME280;6383;50.830;7.210;2023-03-14T08:28:43;98371.16;;;12.39;100.00
12636;BME280;6383;50.830;7.210;2023-03-14T08:31:12;98371.56;;;12.41;100.00
12636;BME280;6383;50.830;7.210;2023-03-14T08:33:40;98377.88;;;12.45;100.00
12636;BME280;6383;50.830;7.210;2023-03-14T08:36:10;98379.06;;;12.47;100.00
12636;BME280;6383;50.830;7.210;2023-03-14T08:38:39;98377.56;;;12.50;100.00
12636;BME280;6383;50.830;7.210;2023-03-14T08:41:10;98377.56;;;12.50;100.00
12636;BME280;6383;50.830;7.210;2023-03-14T08:43:39;98386.59;;;12.54;100.00
12636;BME280;6383;50.830;7.210;2023-03-14T08:46:08;98370.63;;;12.56;100.00
12636;BME280;6383;50.830;7.210;2023-03-14T08:48:36;98369.13;;;12.58;100.00
12636;BME280;6383;50.830;7.210;2023-03-14T08:51:07;98373.81;;;12.61;100.00
12636;BME280;6383;50.830;7.210;2023-03-14T08:53:36;98376.56;;;12.61;100.00
12636;BME280;6383;50.830;7.210;2023-03-14T08:56:06;98383.22;;;12.64;100.00
12636;BME280;6383;50.830;7.210;2023-03-14T08:58:38;98375.03;;;12.64;100.00
12636;BME280;6383;50.830;7.210;2023-03-14T09:01:10;98378.91;;;12.63;100.00
12636;BME280;6383;50.830;7.210;2023-03-14T09:03:39;98382.81;;;12.62;100.00
12636;BME280;6383;50.830;7.210;2023-03-14T09:06:09;98386.31;;;12.62;100.00
12636;BME280;6383;50.830;7.210;2023-03-14T09:08:38;98387.09;;;12.63;100.00
12636;BME280;6383;50.830;7.210;2023-03-14T09:11:08;98399.59;;;12.64;100.00
12636;BME280;6383;50.830;7.210;2023-03-14T09:13:39;98390.63;;;12.63;100.00
12636;BME280;6383;50.830;7.210;2023-03-14T09:16:07;98396.50;;;12.65;100.00
12636;BME280;6383;50.830;7.210;2023-03-14T09:18:36;98409.72;;;12.63;100.00
12636;BME280;6383;50.830;7.210;2023-03-14T09:21:05;98403.84;;;12.61;100.00
12636;BME280;6383;50.830;7.210;2023-03-14T09:23:34;98423.72;;;12.62;100.00
12636;BME280;6383;50.830;7.210;2023-03-14T09:26:04;98427.22;;;12.59;100.00
12636;BME280;6383;50.830;7.210;2023-03-14T09:28:33;98431.09;;;12.58;100.00
12636;BME280;6383;50.830;7.210;2023-03-14T09:31:07;98444.75;;;12.58;100.00
12636;BME280;6383;50.830;7.210;2023-03-14T09:33:37;98450.50;;;12.53;100.00
12636;BME280;6383;50.830;7.210;2023-03-14T09:36:07;98446.91;;;12.49;100.00
12636;BME280;6383;50.830;7.210;2023-03-14T09:38:35;98450.00;;;12.47;100.00
12636;BME280;6383;50.830;7.210;2023-03-14T09:41:13;98447.69;;;12.49;100.00
12636;BME280;6383;50.830;7.210;2023-03-14T09:43:46;98453.59;;;12.51;100.00
12636;BME280;6383;50.830;7.210;2023-03-14T09:46:18;98458.69;;;12.53;100.00
12636;BME280;6383;50.830;7.210;2023-03-14T09:48:47;98456.75;;;12.53;100.00
12636;BME280;6383;50.830;7.210;2023-03-14T09:51:18;98471.16;;;12.54;100.00
12636;BME280;6383;50.830;7.210;2023-03-14T09:53:50;98469.22;;;12.54;100.00
12636;BME280;6383;50.830;7.210;2023-03-14T09:56:20;98469.22;;;12.54;100.00
12636;BME280;6383;50.830;7.210;2023-03-14T09:58:51;98482.09;;;12.54;100.00
12636;BME280;6383;50.830;7.210;2023-03-14T10:01:26;98527.69;;;12.53;100.00
12636;BME280;6383;50.830;7.210;2023-03-14T10:03:55;98575.31;;;12.36;100.00
12636;BME280;6383;50.830;7.210;2023-03-14T10:06:27;98595.47;;;11.93;100.00
12636;BME280;6383;50.830;7.210;2023-03-14T10:08:57;98602.31;;;11.52;100.00
12636;BME280;6383;50.830;7.210;2023-03-14T10:11:26;98611.66;;;11.20;100.00
12636;BME280;6383;50.830;7.210;2023-03-14T10:14:07;98632.81;;;10.95;100.00
12636;BME280;6383;50.830;7.210;2023-03-14T10:16:45;98641.22;;;10.74;100.00
12636;BME280;6383;50.830;7.210;2023-03-14T10:19:16;98661.81;;;10.59;100.00
12636;BME280;6383;50.830;7.210;2023-03-14T10:21:50;98677.88;;;10.37;100.00
12636;BME280;6383;50.830;7.210;2023-03-14T10:24:26;98688.34;;;10.22;100.00
12636;BME280;6383;50.830;7.210;2023-03-14T10:26:57;98702.00;;;10.14;100.00
12636;BME280;6383;50.830;7.210;2023-03-14T10:29:28;98715.50;;;10.10;100.00
12636;BME280;6383;50.830;7.210;2023-03-14T10:32:00;98714.84;;;10.01;100.00
12636;BME280;6383;50.830;7.210;2023-03-14T10:34:30;98737.72;;;10.00;100.00
12636;BME280;6383;50.830;7.210;2023-03-14T10:37:06;98745.28;;;9.95;100.00
12636;BME280;6383;50.830;7.210;2023-03-14T10:39:41;98752.56;;;9.90;100.00
12636;BME280;6383;50.830;7.210;2023-03-14T10:42:17;98754.81;;;9.88;100.00
12636;BME280;6383;50.830;7.210;2023-03-14T10:44:53;98766.69;;;9.84;100.00
12636;BME280;6383;50.830;7.210;2023-03-14T10:47:26;98773.94;;;9.80;100.00
12636;BME280;6383;50.830;7.210;2023-03-14T10:49:57;98784.38;;;9.78;100.00
12636;BME280;6383;50.830;7.210;2023-03-14T10:52:28;98793.19;;;9.75;100.00
12636;BME280;6383;50.830;7.210;2023-03-14T10:54:59;98809.69;;;9.70;100.00
12636;BME280;6383;50.830;7.210;2023-03-14T10:57:27;98800.97;;;9.64;100.00
12636;BME280;6383;50.830;7.210;2023-03-14T10:59:56;98805.16;;;9.62;100.00
12636;BME280;6383;50.830;7.210;2023-03-14T11:02:41;98821.13;;;9.63;100.00
12636;BME280;6383;50.830;7.210;2023-03-14T11:05:21;98829.94;;;9.60;100.00
12636;BME280;6383;50.830;7.210;2023-03-14T11:07:54;98833.78;;;9.59;100.00
12636;BME280;6383;50.830;7.210;2023-03-14T11:10:31;98827.09;;;9.57;100.00
12636;BME280;6383;50.830;7.210;2023-03-14T11:13:12;98848.59;;;9.49;100.00
12636;BME280;6383;50.830;7.210;2023-03-14T11:15:51;98858.28;;;9.50;100.00
12636;BME280;6383;50.830;7.210;2023-03-14T11:18:36;98868.38;;;9.50;100.00
12636;BME280;6383;50.830;7.210;2023-03-14T11:21:11;98876.41;;;9.46;100.00
12636;BME280;6383;50.830;7.210;2023-03-14T11:23:45;98873.69;;;9.46;100.00
12636;BME280;6383;50.830;7.210;2023-03-14T11:26:24;98879.75;;;9.31;100.00
12636;BME280;6383;50.830;7.210;2023-03-14T11:28:57;98886.28;;;9.30;100.00
12636;BME280;6383;50.830;7.210;2023-03-14T11:31:28;98877.72;;;9.40;100.00
12636;BME280;6383;50.830;7.210;2023-03-14T11:34:01;98885.22;;;9.43;100.00
12636;BME280;6383;50.830;7.210;2023-03-14T11:36:38;98883.75;;;9.46;100.00
12636;BME280;6383;50.830;7.210;2023-03-14T11:39:11;98885.81;;;9.49;100.00
12636;BME280;6383;50.830;7.210;2023-03-14T11:41:44;98899.81;;;9.51;100.00
12636;BME280;6383;50.830;7.210;2023-03-14T11:44:18;98899.63;;;9.56;100.00
12636;BME280;6383;50.830;7.210;2023-03-14T11:46:50;98899.44;;;9.61;100.00
12636;BME280;6383;50.830;7.210;2023-03-14T11:49:30;98920.50;;;9.64;100.00
12636;BME280;6383;50.830;7.210;2023-03-14T11:52:08;98919.47;;;9.69;100.00
12636;BME280;6383;50.830;7.210;2023-03-14T11:54:42;98922.91;;;9.78;100.00
12636;BME280;6383;50.830;7.210;2023-03-14T11:57:16;98916.38;;;9.91;100.00
12636;BME280;6383;50.830;7.210;2023-03-14T11:59:49;98926.50;;;10.15;100.00
12636;BME280;6383;50.830;7.210;2023-03-14T12:02:24;98927.59;;;10.35;100.00
12636;BME280;6383;50.830;7.210;2023-03-14T12:05:29;98992.63;;;10.40;100.00
12636;BME280;6383;50.830;7.210;2023-03-14T12:11:11;99009.28;;;10.05;100.00
12636;BME280;6383;50.830;7.210;2023-03-14T12:13:41;99029.13;;;9.85;100.00
12636;BME280;6383;50.830;7.210;2023-03-14T12:16:30;99027.66;;;9.67;100.00
12636;BME280;6383;50.830;7.210;2023-03-14T12:19:14;99038.22;;;9.47;100.00
12636;BME280;6383;50.830;7.210;2023-03-14T12:21:47;99039.13;;;9.31;100.00
12636;BME280;6383;50.830;7.210;2023-03-14T12:24:19;99042.44;;;9.07;100.00
12636;BME280;6383;50.830;7.210;2023-03-14T12:26:53;99047.44;;;8.96;100.00
12636;BME280;6383;50.830;7.210;2023-03-14T12:29:21;99065.03;;;8.90;100.00
12636;BME280;6383;50.830;7.210;2023-03-14T12:32:07;99062.16;;;8.87;100.00
12636;BME280;6383;50.830;7.210;2023-03-14T12:34:39;99081.97;;;8.87;100.00
12636;BME280;6383;50.830;7.210;2023-03-14T12:37:19;99096.75;;;8.98;100.00
12636;BME280;6383;50.830;7.210;2023-03-14T12:42:54;99120.22;;;9.03;100.00
12636;BME280;6383;50.830;7.210;2023-03-14T12:45:28;99142.41;;;9.05;100.00
12636;BME280;6383;50.830;7.210;2023-03-14T12:48:03;99142.03;;;9.06;100.00
12636;BME280;6383;50.830;7.210;2023-03-14T12:50:40;99145.28;;;8.91;100.00
12636;BME280;6383;50.830;7.210;2023-03-14T12:56:15;99165.53;;;9.02;100.00
12636;BME280;6383;50.830;7.210;2023-03-14T12:58:58;99170.97;;;8.94;100.00
12636;BME280;6383;50.830;7.210;2023-03-14T13:01:32;99167.97;;;8.87;100.00
12636;BME280;6383;50.830;7.210;2023-03-14T13:04:05;99178.00;;;8.95;100.00
12636;BME280;6383;50.830;7.210;2023-03-14T13:06:55;99187.38;;;9.06;100.00
12636;BME280;6383;50.830;7.210;2023-03-14T13:09:51;99199.19;;;9.10;100.00
12636;BME280;6383;50.830;7.210;2023-03-14T13:12:23;99201.91;;;9.10;100.00
12636;BME280;6383;50.830;7.210;2023-03-14T13:14:59;99199.34;;;9.13;100.00
12636;BME280;6383;50.830;7.210;2023-03-14T13:17:30;99211.47;;;9.16;100.00
12636;BME280;6383;50.830;7.210;2023-03-14T13:20:02;99220.75;;;9.15;100.00
12636;BME280;6383;50.830;7.210;2023-03-14T13:22:34;99226.16;;;9.15;100.00
12636;BME280;6383;50.830;7.210;2023-03-14T13:25:09;99239.09;;;9.09;100.00
12636;BME280;6383;50.830;7.210;2023-03-14T13:27:38;99253.78;;;9.08;100.00
12636;BME280;6383;50.830;7.210;2023-03-14T13:30:20;99252.19;;;9.07;100.00
12636;BME280;6383;50.830;7.210;2023-03-14T13:32:51;99266.75;;;9.03;100.00
12636;BME280;6383;50.830;7.210;2023-03-14T13:35:23;99263.72;;;9.04;100.00
12636;BME280;6383;50.830;7.210;2023-03-14T13:37:55;99270.41;;;9.07;100.00